Time;durP1;ratioP1;P1;durP2;ratioP2;P2;SDS_P1;SDS_P2;PMS_P1;PMS_P2;Temp;Humidity;BMP_temperature;BMP_pressure;BME280_temperature;BME280_humidity;BME280_pressure;Samples;Min_cycle;Max_cycle;Signal;HPM_P1;HPM_P2
2022/03/05 00:01:42;;;;;;;15.13;8.60;;;0.10;99.90;;;;;;4825308;29;20125;-85
2022/03/05 00:04:08;;;;;;;13.05;8.18;;;0.10;99.90;;;;;;4810191;29;20499;-84
2022/03/05 00:06:34;;;;;;;14.65;7.25;;;0.10;99.90;;;;;;4795036;29;20200;-85
2022/03/05 00:08:59;;;;;;;12.70;6.70;;;0.00;99.90;;;;;;4824861;29;20050;-84
2022/03/05 00:11:25;;;;;;;9.23;5.70;;;0.00;99.90;;;;;;4810032;29;20506;-85
2022/03/05 00:13:51;;;;;;;11.60;6.57;;;0.00;99.90;;;;;;4810068;29;20054;-85
2022/03/05 00:16:16;;;;;;;15.55;7.53;;;-0.10;99.90;;;;;;4809547;29;20138;-84
2022/03/05 00:18:42;;;;;;;13.93;6.53;;;0.00;99.90;;;;;;4824848;29;20404;-85
2022/03/05 00:21:08;;;;;;;12.65;6.28;;;0.50;99.90;;;;;;4809222;29;20161;-85
2022/03/05 00:23:33;;;;;;;12.27;7.05;;;-0.20;99.90;;;;;;4809527;29;20062;-84
2022/03/05 00:25:59;;;;;;;11.88;7.00;;;0.70;99.90;;;;;;4809342;29;20058;-85
2022/03/05 00:28:24;;;;;;;13.07;6.97;;;-0.30;99.90;;;;;;4809452;29;20060;-85
2022/03/05 00:30:50;;;;;;;13.18;7.05;;;-0.30;99.90;;;;;;4794159;29;20418;-84
2022/03/05 00:33:16;;;;;;;14.45;6.88;;;-0.30;99.90;;;;;;4809194;29;20061;-84
2022/03/05 00:35:42;;;;;;;12.70;6.88;;;-0.40;99.90;;;;;;4808995;29;20107;-84
2022/03/05 00:38:08;;;;;;;11.95;6.38;;;-0.40;99.90;;;;;;4809045;29;20050;-84
2022/03/05 00:40:34;;;;;;;12.93;6.43;;;-0.40;99.90;;;;;;4823866;29;20062;-85
2022/03/05 00:42:59;;;;;;;11.75;6.47;;;-0.40;99.90;;;;;;4808699;29;20062;-85
2022/03/05 00:45:25;;;;;;;13.07;6.75;;;-0.50;99.90;;;;;;4808820;29;20511;-83
2022/03/05 00:47:51;;;;;;;14.77;7.05;;;0.30;99.90;;;;;;4808628;29;20046;-84
2022/03/05 00:50:17;;;;;;;11.20;6.65;;;-0.50;99.90;;;;;;4793613;29;20090;-84
2022/03/05 00:52:42;;;;;;;11.48;6.50;;;-0.20;99.90;;;;;;4822929;29;20062;-83
2022/03/05 00:55:09;;;;;;;15.35;6.80;;;-0.50;99.90;;;;;;4823443;29;20046;-84
2022/03/05 00:57:35;;;;;;;11.13;6.35;;;-0.50;99.90;;;;;;4808719;29;20137;-84
2022/03/05 01:00:03;;;;;;;12.43;6.70;;;-0.50;99.90;;;;;;4837997;29;20175;-84
2022/03/05 01:02:30;;;;;;;12.85;6.00;;;-0.60;99.90;;;;;;4826693;29;20057;-84
2022/03/05 01:04:56;;;;;;;12.30;6.00;;;-0.60;99.90;;;;;;4826818;29;20057;-84
2022/03/05 01:07:22;;;;;;;12.52;6.28;;;-0.60;99.90;;;;;;4821098;29;20106;-84
2022/03/05 01:09:48;;;;;;;11.07;5.88;;;-0.60;99.90;;;;;;4808594;29;20051;-84
2022/03/05 01:12:13;;;;;;;12.73;6.03;;;-0.60;99.90;;;;;;4823494;29;20061;-84
2022/03/05 01:14:39;;;;;;;13.73;6.68;;;-0.60;99.90;;;;;;4793448;29;20082;-84
2022/03/05 01:17:05;;;;;;;12.55;5.97;;;-0.60;99.90;;;;;;4793473;29;20046;-84
2022/03/05 01:19:31;;;;;;;10.73;5.72;;;-0.60;99.90;;;;;;4822406;29;20058;-85
2022/03/05 01:21:56;;;;;;;11.07;5.78;;;-0.60;99.90;;;;;;4807842;29;20050;-84
2022/03/05 01:24:22;;;;;;;11.95;6.35;;;-0.60;99.90;;;;;;4823649;29;20395;-84
2022/03/05 01:26:47;;;;;;;10.02;5.65;;;-0.60;99.90;;;;;;4808104;29;20131;-84
2022/03/05 01:29:13;;;;;;;12.10;6.10;;;-0.60;99.90;;;;;;4808366;29;20070;-84
2022/03/05 01:31:39;;;;;;;10.20;5.47;;;-0.60;99.90;;;;;;4808387;29;20054;-84
2022/03/05 01:34:05;;;;;;;13.02;8.18;;;-0.60;99.90;;;;;;4823487;29;20237;-83
2022/03/05 01:36:30;;;;;;;12.48;6.00;;;-0.60;99.90;;;;;;4808255;29;20057;-84
2022/03/05 01:38:56;;;;;;;10.68;6.32;;;-0.70;99.90;;;;;;4808141;29;20050;-84
2022/03/05 01:41:22;;;;;;;9.60;5.07;;;-0.70;99.90;;;;;;4792922;29;20089;-84
2022/03/05 01:43:51;;;;;;;9.70;5.88;;;-0.70;99.90;;;;;;4823158;29;20058;-86
2022/03/05 01:46:31;;;;;;;12.00;6.05;;;-0.70;99.90;;;;;;4807622;29;20054;-84
2022/03/05 01:48:57;;;;;;;11.52;6.10;;;-0.70;99.90;;;;;;4823032;29;20058;-84
2022/03/05 01:51:23;;;;;;;9.30;5.78;;;-0.70;99.90;;;;;;4807105;29;20061;-84
2022/03/05 01:53:49;;;;;;;10.90;5.75;;;-0.70;99.90;;;;;;4807480;29;20437;-84
2022/03/05 01:56:15;;;;;;;10.45;4.97;;;-0.80;99.90;;;;;;4792386;29;20050;-84
2022/03/05 01:58:41;;;;;;;10.35;5.18;;;-0.20;99.90;;;;;;4811592;29;20448;-84
2022/03/05 02:01:07;;;;;;;9.98;5.50;;;-0.90;99.90;;;;;;4825788;29;20092;-84
2022/03/05 02:03:32;;;;;;;11.27;6.00;;;-0.90;99.90;;;;;;4826077;29;20056;-86
2022/03/05 02:05:58;;;;;;;9.95;5.40;;;-1.00;99.90;;;;;;4825875;29;20045;-84
2022/03/05 02:08:25;;;;;;;11.35;5.13;;;-1.00;99.90;;;;;;4812794;29;20054;-83
2022/03/05 02:10:51;;;;;;;9.85;5.40;;;-1.10;99.90;;;;;;4808090;29;20114;-84
2022/03/05 02:13:16;;;;;;;11.48;5.60;;;-1.00;99.90;;;;;;4823092;29;20495;-83
2022/03/05 02:15:42;;;;;;;9.60;5.35;;;-1.00;99.90;;;;;;4792781;29;20054;-84
2022/03/05 02:18:08;;;;;;;11.20;5.13;;;-1.00;99.90;;;;;;4807839;29;20118;-84
2022/03/05 02:20:33;;;;;;;11.35;5.57;;;-1.00;99.90;;;;;;4807382;29;20058;-84
2022/03/05 02:22:59;;;;;;;11.65;5.45;;;-1.10;99.90;;;;;;4823141;29;20050;-84
2022/03/05 02:25:25;;;;;;;9.75;5.30;;;-0.30;99.90;;;;;;4823165;29;20093;-84
2022/03/05 02:27:51;;;;;;;9.98;5.40;;;-1.00;99.90;;;;;;4807889;29;20392;-84
2022/03/05 02:30:16;;;;;;;11.73;6.10;;;-1.10;99.90;;;;;;4807604;29;20145;-84
2022/03/05 02:32:42;;;;;;;9.70;5.22;;;-1.10;99.90;;;;;;4792778;29;20472;-85
2022/03/05 02:35:09;;;;;;;10.50;4.97;;;-0.10;99.90;;;;;;4822662;29;20099;-83
2022/03/05 02:37:34;;;;;;;11.65;5.70;;;-1.10;99.90;;;;;;4807579;29;20061;-84
2022/03/05 02:40:00;;;;;;;10.88;5.60;;;-1.10;99.90;;;;;;4792560;29;20058;-84
2022/03/05 02:42:26;;;;;;;12.43;6.13;;;-0.90;99.90;;;;;;4822757;29;20042;-83
2022/03/05 02:44:52;;;;;;;9.13;5.20;;;-1.20;99.90;;;;;;4807906;29;20163;-84
2022/03/05 02:47:17;;;;;;;9.77;5.03;;;-1.20;99.90;;;;;;4792500;29;20043;-84
2022/03/05 02:49:43;;;;;;;11.88;5.60;;;-1.20;99.90;;;;;;4822829;29;20100;-84
2022/03/05 02:52:09;;;;;;;11.60;5.20;;;-1.20;99.90;;;;;;4806698;29;20058;-84
2022/03/05 02:54:35;;;;;;;12.38;5.57;;;-1.20;99.90;;;;;;4808010;29;20054;-84
2022/03/05 02:57:00;;;;;;;10.75;5.20;;;-1.20;99.90;;;;;;4807620;29;20392;-83
2022/03/05 02:59:27;;;;;;;13.40;6.72;;;-1.20;99.90;;;;;;4817481;29;20057;-84
2022/03/05 03:01:52;;;;;;;13.60;5.45;;;-0.30;99.90;;;;;;4826174;29;20056;-84
2022/03/05 03:04:18;;;;;;;10.15;5.20;;;-1.20;99.90;;;;;;4826205;29;20046;-84
2022/03/05 03:06:44;;;;;;;10.65;5.88;;;-1.20;99.90;;;;;;4825064;29;20400;-84
2022/03/05 03:09:10;;;;;;;11.25;6.15;;;-0.80;99.90;;;;;;4807847;29;20050;-84
2022/03/05 03:11:35;;;;;;;11.80;5.72;;;-1.20;99.90;;;;;;4807528;29;20062;-84
2022/03/05 03:14:01;;;;;;;14.07;5.80;;;-1.20;99.90;;;;;;4792235;29;20385;-84
2022/03/05 03:16:29;;;;;;;10.02;5.13;;;-0.40;99.90;;;;;;4807673;29;20137;-84
2022/03/05 03:18:55;;;;;;;10.88;5.40;;;-1.20;99.90;;;;;;4807822;29;20062;-84
2022/03/05 03:21:20;;;;;;;10.27;5.38;;;-1.30;99.90;;;;;;4807380;29;20050;-84
2022/03/05 03:23:46;;;;;;;14.77;6.78;;;-1.30;99.90;;;;;;4807567;29;20141;-85
2022/03/05 03:26:12;;;;;;;11.73;6.50;;;-1.30;99.90;;;;;;4807386;29;20042;-84
2022/03/05 03:28:37;;;;;;;11.40;6.18;;;-1.00;99.90;;;;;;4822622;29;20054;-85
2022/03/05 03:31:03;;;;;;;11.90;5.70;;;-0.40;99.90;;;;;;4807571;29;20058;-84
2022/03/05 03:33:29;;;;;;;10.60;5.35;;;-0.40;99.90;;;;;;4792033;29;20054;-84
2022/03/05 03:35:54;;;;;;;10.73;6.00;;;-1.30;99.90;;;;;;4822558;29;20125;-84
2022/03/05 03:38:20;;;;;;;11.73;5.88;;;-1.30;99.90;;;;;;4807366;29;20066;-84
2022/03/05 03:40:46;;;;;;;10.05;5.07;;;-1.30;99.90;;;;;;4807270;29;20050;-84
2022/03/05 03:43:12;;;;;;;11.05;5.82;;;-1.30;99.90;;;;;;4823654;29;20106;-84
2022/03/05 03:45:37;;;;;;;9.57;5.65;;;-0.70;99.90;;;;;;4795775;29;20141;-85
2022/03/05 03:48:04;;;;;;;12.85;5.47;;;-1.20;99.90;;;;;;4825763;29;20082;-85
2022/03/05 03:50:29;;;;;;;9.35;5.30;;;-1.40;99.90;;;;;;4825195;29;20556;-86
2022/03/05 03:52:55;;;;;;;10.48;5.20;;;-1.40;99.90;;;;;;4809785;29;20096;-85
2022/03/05 03:55:22;;;;;;;12.82;5.30;;;-1.40;99.90;;;;;;4810170;29;20057;-86
2022/03/05 03:57:48;;;;;;;11.27;6.00;;;-1.10;99.90;;;;;;4825542;29;20058;-84
2022/03/05 04:00:17;;;;;;;12.35;6.38;;;-1.30;99.90;;;;;;4826054;29;20415;-85
2022/03/05 04:02:43;;;;;;;12.50;5.57;;;-1.10;99.90;;;;;;4828709;29;20408;-84
2022/03/05 04:05:10;;;;;;;11.35;5.65;;;-1.30;99.90;;;;;;4828555;29;20062;-84
2022/03/05 04:10:21;;;;;;;11.98;5.53;;;-0.60;99.90;;;;;;4825521;29;20058;-85
2022/03/05 04:12:47;;;;;;;10.13;5.30;;;-1.30;99.90;;;;;;4810542;29;20064;-84
2022/03/05 04:15:12;;;;;;;13.73;5.88;;;-1.30;99.90;;;;;;4810542;29;20046;-85
2022/03/05 04:17:38;;;;;;;11.35;4.97;;;-1.40;99.90;;;;;;4810258;29;20396;-85
2022/03/05 04:20:07;;;;;;;10.13;5.05;;;-1.40;99.90;;;;;;4825341;29;20080;-85
2022/03/05 04:22:33;;;;;;;9.65;5.28;;;-1.40;99.90;;;;;;4809911;29;20054;-84
2022/03/05 04:24:59;;;;;;;12.07;5.32;;;-1.30;99.90;;;;;;4825275;29;20058;-85
2022/03/05 04:27:25;;;;;;;10.18;5.60;;;-1.30;99.90;;;;;;4795004;29;20042;-85
2022/03/05 04:29:51;;;;;;;12.38;5.30;;;-1.40;99.90;;;;;;4824782;29;20488;-85
2022/03/05 04:32:16;;;;;;;12.20;5.22;;;-1.40;99.90;;;;;;4810144;29;20042;-85
2022/03/05 04:34:42;;;;;;;9.55;4.63;;;-0.30;99.90;;;;;;4810172;29;20092;-85
2022/03/05 04:37:08;;;;;;;10.05;4.90;;;-1.50;99.90;;;;;;4780368;29;20409;-84
2022/03/05 04:39:34;;;;;;;11.77;5.47;;;-1.60;99.90;;;;;;4810200;29;20061;-85
2022/03/05 04:41:59;;;;;;;9.35;5.22;;;-1.60;99.90;;;;;;4795525;29;20087;-84
2022/03/05 04:44:25;;;;;;;11.05;5.07;;;-1.70;99.90;;;;;;4795354;29;20054;-85
2022/03/05 04:46:51;;;;;;;11.70;5.18;;;-1.70;99.90;;;;;;4825146;29;20484;-85
2022/03/05 04:49:17;;;;;;;14.02;10.38;;;-1.40;99.90;;;;;;4825178;29;20057;-84
2022/03/05 04:51:43;;;;;;;15.10;8.15;;;-1.70;99.90;;;;;;4794541;29;20104;-85
2022/03/05 04:54:08;;;;;;;11.55;6.07;;;-1.80;99.90;;;;;;4824171;29;20054;-85
2022/03/05 04:56:34;;;;;;;13.95;5.78;;;-1.80;99.90;;;;;;4810167;29;20049;-85
2022/03/05 04:59:00;;;;;;;13.25;6.18;;;-1.80;99.90;;;;;;4795320;29;20055;-85
2022/03/05 05:01:26;;;;;;;11.07;5.28;;;-1.80;99.90;;;;;;4795301;29;20061;-87
2022/03/05 05:03:52;;;;;;;11.77;5.60;;;-1.20;99.90;;;;;;4825331;29;20061;-85
2022/03/05 05:06:18;;;;;;;10.55;6.07;;;-0.60;99.90;;;;;;4825147;29;20057;-85
2022/03/05 05:08:44;;;;;;;9.82;6.03;;;-0.70;99.90;;;;;;4780222;29;20408;-85
2022/03/05 05:11:10;;;;;;;9.60;5.55;;;-1.70;99.90;;;;;;4810167;29;20046;-85
2022/03/05 05:13:35;;;;;;;12.52;5.07;;;-1.50;99.90;;;;;;4809977;29;20058;-85
2022/03/05 05:16:01;;;;;;;13.20;5.38;;;-1.50;99.90;;;;;;4795129;29;20050;-86
2022/03/05 05:18:27;;;;;;;10.57;5.75;;;-1.60;99.90;;;;;;4824846;29;20042;-86
2022/03/05 05:20:53;;;;;;;11.60;5.82;;;-0.50;99.90;;;;;;4794116;29;20114;-86
2022/03/05 05:23:19;;;;;;;10.20;5.28;;;-1.50;99.90;;;;;;4809866;29;20124;-85
2022/03/05 05:25:45;;;;;;;9.38;5.47;;;-1.60;99.90;;;;;;4794662;29;20110;-85
2022/03/05 05:28:10;;;;;;;11.57;5.45;;;-1.00;99.90;;;;;;4824745;29;20107;-86
2022/03/05 05:30:36;;;;;;;12.48;6.40;;;-1.60;99.90;;;;;;4824696;29;20475;-86
2022/03/05 05:33:02;;;;;;;13.27;6.35;;;-1.60;99.90;;;;;;4809849;29;20057;-84
2022/03/05 05:35:28;;;;;;;13.07;6.55;;;-1.60;99.90;;;;;;4824689;29;20404;-87
2022/03/05 05:37:53;;;;;;;12.85;6.03;;;-1.60;99.90;;;;;;4809582;29;20069;-85
2022/03/05 05:40:19;;;;;;;11.10;5.70;;;-1.60;99.90;;;;;;4824319;29;20060;-85
2022/03/05 05:42:45;;;;;;;12.40;5.40;;;-1.70;99.90;;;;;;4809273;29;20050;-85
2022/03/05 05:45:11;;;;;;;10.15;5.20;;;-1.70;99.90;;;;;;4809175;29;20054;-86
2022/03/05 05:47:37;;;;;;;11.70;6.55;;;-1.70;99.90;;;;;;4793784;29;20050;-86
2022/03/05 05:50:05;;;;;;;12.32;5.47;;;-1.70;99.90;;;;;;4824495;29;20062;-86
2022/03/05 05:52:30;;;;;;;10.00;4.88;;;-1.80;99.90;;;;;;4808379;29;20074;-85
2022/03/05 05:54:56;;;;;;;10.02;5.55;;;-1.80;99.90;;;;;;4794171;29;20054;-86
2022/03/05 05:57:22;;;;;;;9.68;5.38;;;-1.80;99.90;;;;;;4808844;29;20141;-86
2022/03/05 05:59:47;;;;;;;9.52;5.35;;;-1.80;99.90;;;;;;4794388;29;20057;-86
2022/03/05 06:02:13;;;;;;;11.25;5.40;;;-0.90;99.90;;;;;;4809197;29;20102;-86
2022/03/05 06:04:39;;;;;;;14.32;5.60;;;-1.80;99.90;;;;;;4794155;29;20054;-86
2022/03/05 06:07:05;;;;;;;7.05;4.80;;;-1.80;99.90;;;;;;4808459;29;20053;-86
2022/03/05 06:09:30;;;;;;;11.07;5.45;;;-1.80;99.90;;;;;;4809204;29;20141;-86
2022/03/05 06:11:56;;;;;;;12.30;5.32;;;-1.80;99.90;;;;;;4793931;29;20096;-86
2022/03/05 06:14:22;;;;;;;10.38;5.15;;;-1.90;99.90;;;;;;4808834;29;20477;-86
2022/03/05 06:16:48;;;;;;;10.40;5.15;;;-1.20;99.90;;;;;;4808750;29;20053;-87
2022/03/05 06:19:14;;;;;;;13.50;5.30;;;-1.90;99.90;;;;;;4808672;29;20062;-87
2022/03/05 06:21:40;;;;;;;10.38;5.43;;;-1.20;99.90;;;;;;4823594;29;20160;-87
2022/03/05 06:24:07;;;;;;;11.80;5.85;;;-1.80;99.90;;;;;;4824004;29;20559;-87
2022/03/05 06:26:34;;;;;;;11.23;5.32;;;-1.80;99.90;;;;;;4823822;29;20046;-88
2022/03/05 06:28:59;;;;;;;11.73;6.43;;;-1.70;99.90;;;;;;4793926;29;20050;-86
2022/03/05 06:31:25;;;;;;;10.18;6.38;;;-1.80;99.90;;;;;;4793730;29;20112;-87
2022/03/05 06:33:51;;;;;;;10.38;5.22;;;-1.70;99.90;;;;;;4808589;29;20057;-86
2022/03/05 06:36:16;;;;;;;11.95;6.30;;;-1.50;99.90;;;;;;4808902;29;20066;-85
2022/03/05 06:38:42;;;;;;;14.35;6.30;;;-1.70;99.90;;;;;;4823709;29;20050;-85
2022/03/05 06:41:08;;;;;;;10.77;5.82;;;-1.60;99.90;;;;;;4808766;29;20141;-85
2022/03/05 06:43:33;;;;;;;13.98;6.28;;;-1.60;99.90;;;;;;4793721;29;20054;-85
2022/03/05 06:45:59;;;;;;;11.57;6.05;;;-1.10;99.90;;;;;;4808980;29;20163;-85
2022/03/05 06:48:25;;;;;;;13.13;6.22;;;-1.50;99.90;;;;;;4823964;29;20506;-85
2022/03/05 06:50:51;;;;;;;11.57;6.05;;;-1.40;99.90;;;;;;4808067;29;20054;-86
2022/03/05 06:53:17;;;;;;;11.82;5.75;;;-1.40;99.90;;;;;;4808605;29;20089;-86
2022/03/05 06:55:42;;;;;;;10.95;5.70;;;-1.30;99.90;;;;;;4808594;29;20063;-85
2022/03/05 06:58:08;;;;;;;11.57;5.88;;;-1.30;99.90;;;;;;4808622;29;20058;-85
2022/03/05 07:00:34;;;;;;;12.80;6.43;;;-0.80;99.90;;;;;;4808438;29;20051;-85
2022/03/05 07:03:00;;;;;;;12.65;5.90;;;-1.10;99.90;;;;;;4823637;29;20054;-86
2022/03/05 07:05:26;;;;;;;17.88;7.20;;;-1.10;99.90;;;;;;4808348;29;20050;-86
2022/03/05 07:07:52;;;;;;;14.05;6.63;;;-1.00;99.90;;;;;;4808147;29;20116;-85
2022/03/05 07:10:18;;;;;;;13.32;7.38;;;-0.20;99.90;;;;;;4823719;29;20058;-85
2022/03/05 07:12:44;;;;;;;14.43;7.20;;;-0.90;99.90;;;;;;4823517;29;20055;-85
2022/03/05 07:15:10;;;;;;;13.95;6.68;;;-0.30;99.90;;;;;;4808389;29;20065;-85
2022/03/05 07:17:36;;;;;;;15.38;6.75;;;-0.80;99.90;;;;;;4823733;29;20046;-85
2022/03/05 07:20:02;;;;;;;14.10;7.57;;;-0.70;99.90;;;;;;4826852;29;20144;-85
2022/03/05 07:22:28;;;;;;;14.88;6.90;;;-0.60;99.90;;;;;;4810901;29;20385;-85
2022/03/05 07:24:53;;;;;;;13.45;6.78;;;0.40;99.90;;;;;;4811361;29;20179;-85
2022/03/05 07:27:19;;;;;;;14.75;7.10;;;-0.30;99.90;;;;;;4810982;29;20046;-88
2022/03/05 07:29:46;;;;;;;15.48;7.22;;;-0.40;99.90;;;;;;4810962;29;20050;-86
2022/03/05 07:32:12;;;;;;;14.10;7.15;;;-0.30;99.90;;;;;;4796017;29;20065;-85
2022/03/05 07:34:38;;;;;;;14.65;7.57;;;0.40;99.90;;;;;;4825810;29;20058;-86
2022/03/05 07:37:04;;;;;;;14.45;7.05;;;1.00;99.90;;;;;;4825490;29;20047;-85
2022/03/05 07:39:30;;;;;;;16.23;7.35;;;0.30;99.90;;;;;;4825723;29;20038;-86
2022/03/05 07:41:55;;;;;;;12.15;6.60;;;0.10;99.90;;;;;;4795412;29;20595;-85
2022/03/05 07:44:21;;;;;;;14.77;7.32;;;0.70;99.90;;;;;;4813094;29;20137;-85
2022/03/05 07:46:47;;;;;;;16.27;8.23;;;0.60;99.90;;;;;;4825584;29;20086;-84
2022/03/05 07:49:13;;;;;;;14.60;6.70;;;0.20;99.90;;;;;;4813255;29;20050;-87
2022/03/05 07:51:38;;;;;;;15.82;7.32;;;0.20;99.90;;;;;;4824284;29;20058;-86
2022/03/05 07:54:05;;;;;;;15.13;7.43;;;1.00;99.90;;;;;;4825116;29;20447;-87
2022/03/05 07:56:30;;;;;;;14.77;7.63;;;0.50;99.90;;;;;;4824594;29;20050;-87
2022/03/05 07:58:56;;;;;;;13.07;7.18;;;1.50;99.90;;;;;;4830830;29;20563;-87
2022/03/05 08:01:22;;;;;;;15.90;7.50;;;0.80;99.90;;;;;;4842803;29;20070;-87
2022/03/05 08:03:48;;;;;;;15.02;7.45;;;0.80;99.90;;;;;;4827634;29;20136;-86
2022/03/05 08:06:13;;;;;;;15.63;8.30;;;0.70;99.90;;;;;;4812428;29;20061;-88
2022/03/05 08:08:39;;;;;;;15.82;8.35;;;1.50;99.90;;;;;;4812830;29;20046;-87
2022/03/05 08:11:07;;;;;;;14.70;7.90;;;1.10;99.90;;;;;;4824842;29;20083;-88
2022/03/05 08:13:32;;;;;;;14.57;7.13;;;1.00;99.90;;;;;;4824310;29;20051;-88
2022/03/05 08:15:58;;;;;;;19.42;7.53;;;1.10;99.90;;;;;;4824103;29;20102;-88
2022/03/05 08:18:24;;;;;;;14.73;7.00;;;1.20;99.90;;;;;;4824377;29;20062;-87
2022/03/05 08:20:50;;;;;;;14.70;8.13;;;2.20;99.90;;;;;;4809202;29;20058;-90
2022/03/05 08:23:15;;;;;;;15.05;6.88;;;1.40;99.90;;;;;;4825462;29;20054;-87
2022/03/05 08:25:41;;;;;;;18.02;8.48;;;1.50;99.90;;;;;;4825646;29;20047;-89
2022/03/05 08:28:07;;;;;;;16.02;7.85;;;2.00;99.90;;;;;;4812315;29;20058;-90
2022/03/05 08:30:33;;;;;;;14.27;8.15;;;1.70;99.90;;;;;;4825813;29;20054;-90
2022/03/05 08:32:59;;;;;;;15.38;8.48;;;1.80;99.90;;;;;;4829145;29;20373;-91
2022/03/05 08:35:25;;;;;;;15.85;8.13;;;1.90;99.90;;;;;;4813629;29;20099;-91
2022/03/05 08:37:51;;;;;;;18.10;8.10;;;2.00;99.90;;;;;;4833369;29;20119;-90
2022/03/05 08:40:18;;;;;;;13.65;7.35;;;2.10;99.90;;;;;;4815579;29;20108;-89
2022/03/05 08:42:45;;;;;;;16.42;8.40;;;2.20;99.90;;;;;;4820174;29;20054;-89
2022/03/05 08:45:12;;;;;;;18.52;8.98;;;2.30;99.90;;;;;;4833137;29;20054;-90
2022/03/05 08:47:38;;;;;;;17.70;9.00;;;2.40;99.90;;;;;;4819498;29;20048;-91
2022/03/05 08:50:05;;;;;;;18.50;9.40;;;3.00;99.90;;;;;;4834933;29;20058;-90
2022/03/05 08:52:36;;;;;;;18.00;9.23;;;2.50;99.90;;;;;;4823543;29;20050;-88
2022/03/05 08:55:13;;;;;;;20.73;9.93;;;2.60;99.90;;;;;;4813819;29;20066;-88
2022/03/05 08:57:39;;;;;;;15.85;8.15;;;2.80;99.90;;;;;;4825354;29;20088;-84
2022/03/05 09:00:08;;;;;;;16.00;8.50;;;2.80;99.90;;;;;;4825182;29;20050;-87
2022/03/05 09:02:35;;;;;;;17.67;8.35;;;2.90;99.90;;;;;;4829148;29;20042;-90
2022/03/05 09:05:00;;;;;;;17.38;8.40;;;3.30;99.90;;;;;;4820691;29;20050;-90
2022/03/05 09:07:27;;;;;;;16.02;9.30;;;3.50;99.90;;;;;;4825003;29;20476;-89
2022/03/05 09:09:53;;;;;;;18.00;8.88;;;3.20;99.90;;;;;;4826758;29;20046;-90
2022/03/05 09:12:19;;;;;;;21.10;9.60;;;3.20;99.90;;;;;;4824195;29;20050;-90
2022/03/05 09:14:46;;;;;;;20.35;9.30;;;3.80;99.90;;;;;;4821156;29;20050;-91
2022/03/05 09:17:12;;;;;;;21.30;9.73;;;4.10;99.90;;;;;;4812967;29;20062;-87
2022/03/05 09:19:38;;;;;;;22.10;9.15;;;3.80;99.90;;;;;;4824041;29;20128;-87
2022/03/05 09:22:07;;;;;;;18.27;8.50;;;3.60;99.90;;;;;;4824349;29;20062;-89
2022/03/05 09:24:33;;;;;;;17.35;8.45;;;3.70;99.90;;;;;;4824269;29;20081;-87
2022/03/05 09:26:58;;;;;;;19.48;9.90;;;3.70;99.90;;;;;;4814190;29;20464;-90
2022/03/05 09:29:25;;;;;;;20.20;9.38;;;3.80;99.90;;;;;;4813704;29;20057;-89
2022/03/05 09:31:51;;;;;;;18.05;9.35;;;4.00;99.90;;;;;;4833062;29;20054;-88
2022/03/05 09:34:16;;;;;;;20.08;9.68;;;4.60;99.90;;;;;;4838614;29;20057;-90
2022/03/05 09:36:42;;;;;;;22.38;10.48;;;4.10;99.90;;;;;;4834201;29;20133;-89
2022/03/05 09:39:09;;;;;;;17.50;10.38;;;4.20;99.90;;;;;;4827204;29;20397;-89
2022/03/05 09:41:39;;;;;;;21.85;9.82;;;4.70;99.90;;;;;;4825096;29;20530;-91
2022/03/05 09:44:05;;;;;;;22.58;10.18;;;4.70;99.90;;;;;;4829311;29;20046;-91
2022/03/05 09:46:31;;;;;;;23.58;10.52;;;4.50;99.90;;;;;;4816248;29;20050;-90
2022/03/05 09:48:58;;;;;;;21.23;10.30;;;4.70;99.90;;;;;;4836079;29;20186;-90
2022/03/05 09:51:24;;;;;;;21.42;10.32;;;4.90;99.90;;;;;;4827648;29;20133;-89
2022/03/05 09:53:53;;;;;;;20.63;9.98;;;4.90;99.90;;;;;;4820715;29;20058;-90
2022/03/05 09:56:19;;;;;;;20.27;8.95;;;5.00;99.90;;;;;;4830267;29;20496;-89
2022/03/05 09:58:45;;;;;;;21.65;10.25;;;5.00;99.90;;;;;;4839959;29;20053;-92
2022/03/05 10:01:10;;;;;;;22.17;11.60;;;5.10;99.90;;;;;;4836379;29;20408;-84
2022/03/05 10:03:48;;;;;;;19.75;9.20;;;5.20;99.90;;;;;;4834012;29;20054;-91
2022/03/05 10:06:16;;;;;;;19.55;10.25;;;5.40;99.90;;;;;;4850991;29;20097;-92
2022/03/05 10:08:43;;;;;;;22.05;10.23;;;5.70;99.90;;;;;;4836830;29;20069;-89
2022/03/05 10:11:11;;;;;;;19.10;9.95;;;6.00;99.90;;;;;;4832695;29;20107;-89
2022/03/05 10:13:39;;;;;;;20.70;9.80;;;6.10;99.90;;;;;;4831206;29;20120;-88
2022/03/05 10:16:20;;;;;;;17.73;9.70;;;6.40;99.90;;;;;;4827710;29;20090;-90
2022/03/05 10:18:46;;;;;;;19.88;9.98;;;6.70;99.90;;;;;;4810981;29;20051;-88
2022/03/05 10:21:12;;;;;;;20.17;10.15;;;6.80;99.90;;;;;;4825663;29;20112;-88
2022/03/05 10:23:47;;;;;;;19.30;9.63;;;7.00;99.90;;;;;;4827690;29;20057;-91
2022/03/05 10:26:21;;;;;;;21.50;10.77;;;7.20;99.90;;;;;;4831021;29;20061;-90
2022/03/05 10:28:47;;;;;;;20.60;10.60;;;7.30;99.90;;;;;;4800514;29;20050;-89
2022/03/05 10:31:13;;;;;;;21.73;10.32;;;7.50;99.90;;;;;;4804572;29;20062;-90
2022/03/05 10:33:48;;;;;;;19.63;10.48;;;7.70;99.90;;;;;;4821958;29;20062;-86
2022/03/05 10:36:25;;;;;;;18.85;10.13;;;7.70;99.90;;;;;;4807032;29;20070;-86
2022/03/05 10:38:59;;;;;;;20.02;9.85;;;7.80;99.90;;;;;;4821636;29;20050;-84
2022/03/05 10:41:40;;;;;;;23.23;11.95;;;8.00;99.90;;;;;;4821925;29;20100;-85
2022/03/05 10:44:15;;;;;;;19.77;9.57;;;8.10;99.90;;;;;;4813252;29;20146;-86
2022/03/05 10:46:44;;;;;;;22.60;11.35;;;8.30;99.90;;;;;;4832109;29;20051;-86
2022/03/05 10:49:18;;;;;;;20.50;10.65;;;8.40;99.90;;;;;;4813337;29;20057;-90
2022/03/05 10:51:47;;;;;;;20.23;10.57;;;8.60;99.90;;;;;;4809747;29;20077;-89
2022/03/05 10:54:39;;;;;;;18.30;9.77;;;8.60;99.90;;;;;;4797992;29;20065;-86
2022/03/05 10:57:18;;;;;;;19.17;10.07;;;8.60;99.90;;;;;;4811107;29;20043;-87
2022/03/05 10:59:55;;;;;;;19.55;10.15;;;8.70;99.90;;;;;;4818357;29;20093;-87
2022/03/05 11:02:22;;;;;;;17.95;10.90;;;8.70;99.90;;;;;;4833422;29;20531;-84
2022/03/05 11:04:49;;;;;;;21.10;10.68;;;8.70;99.90;;;;;;4811823;29;20066;-86
2022/03/05 11:07:16;;;;;;;21.10;10.68;;;8.60;99.90;;;;;;4817540;29;20081;-88
2022/03/05 11:09:43;;;;;;;20.27;10.57;;;8.70;99.90;;;;;;4831779;29;20453;-91
2022/03/05 11:12:19;;;;;;;19.50;10.98;;;8.70;99.90;;;;;;4829353;29;20115;-88
2022/03/05 11:14:47;;;;;;;21.80;11.68;;;8.80;99.90;;;;;;4812564;29;20043;-86
2022/03/05 11:17:13;;;;;;;17.83;9.25;;;9.10;99.90;;;;;;4817288;29;20069;-89
2022/03/05 11:19:39;;;;;;;18.70;10.73;;;9.30;99.90;;;;;;4829576;29;20145;-87
2022/03/05 11:22:06;;;;;;;19.88;10.32;;;9.50;99.90;;;;;;4801427;29;20081;-85
2022/03/05 11:24:33;;;;;;;19.25;11.10;;;9.60;99.90;;;;;;4818936;29;20126;-89
2022/03/05 11:26:59;;;;;;;19.95;10.35;;;9.60;99.90;;;;;;4818925;29;20133;-86
2022/03/05 11:29:29;;;;;;;18.08;9.23;;;9.60;99.90;;;;;;4797330;29;20418;-88
2022/03/05 11:32:13;;;;;;;19.67;11.05;;;9.70;99.90;;;;;;4802883;29;20069;-87
2022/03/05 11:34:49;;;;;;;19.67;10.95;;;9.70;99.90;;;;;;4831874;29;20062;-88
2022/03/05 11:37:30;;;;;;;21.35;11.45;;;9.70;99.90;;;;;;4818884;29;20053;-88
2022/03/05 11:39:55;;;;;;;20.67;10.95;;;9.70;99.90;;;;;;4810750;29;20130;-86
2022/03/05 11:42:32;;;;;;;20.95;11.80;;;9.80;99.90;;;;;;4803435;29;20134;-86
2022/03/05 11:45:01;;;;;;;19.77;10.85;;;9.80;99.90;;;;;;4821373;29;20050;-85
2022/03/05 11:47:32;;;;;;;20.63;11.35;;;9.80;99.90;;;;;;4790704;29;20488;-87
2022/03/05 11:49:58;;;;;;;18.30;10.23;;;9.70;99.90;;;;;;4805966;29;20073;-86
2022/03/05 11:52:56;;;;;;;22.00;11.38;;;9.40;99.90;;;;;;4820389;29;20067;-87
2022/03/05 11:55:26;;;;;;;18.98;10.02;;;9.20;99.90;;;;;;4822036;29;20126;-88
2022/03/05 11:57:51;;;;;;;19.10;11.32;;;9.10;99.90;;;;;;4822100;29;20055;-87
2022/03/05 12:00:29;;;;;;;22.55;11.18;;;9.00;99.90;;;;;;4805767;29;20058;-88
2022/03/05 12:02:55;;;;;;;21.50;11.43;;;8.90;99.90;;;;;;4824134;29;20487;-86
2022/03/05 12:05:44;;;;;;;24.15;12.18;;;8.80;99.90;;;;;;4839652;29;20112;-85
2022/03/05 12:08:30;;;;;;;19.48;9.88;;;8.70;99.90;;;;;;4822701;29;20042;-86
2022/03/05 12:11:16;;;;;;;22.73;11.47;;;8.70;99.90;;;;;;4802668;29;20093;-87
2022/03/05 12:13:51;;;;;;;21.85;10.77;;;8.60;99.90;;;;;;4813674;29;20061;-88
2022/03/05 12:16:17;;;;;;;22.55;11.07;;;8.60;99.90;;;;;;4815347;29;20073;-87
2022/03/05 12:18:45;;;;;;;20.83;10.77;;;8.60;99.90;;;;;;4821553;29;20111;-87
2022/03/05 12:21:11;;;;;;;23.10;11.57;;;8.60;99.90;;;;;;4819626;29;20137;-88
2022/03/05 12:23:37;;;;;;;23.55;11.85;;;8.50;99.90;;;;;;4813820;29;20146;-88
2022/03/05 12:26:06;;;;;;;19.40;10.65;;;8.70;99.90;;;;;;4837738;29;20481;-88
2022/03/05 12:28:42;;;;;;;25.35;11.63;;;9.40;99.90;;;;;;4812430;29;20057;-89
2022/03/05 12:31:20;;;;;;;21.02;11.27;;;10.10;99.90;;;;;;4812545;29;20134;-89
2022/03/05 12:33:47;;;;;;;22.48;11.90;;;10.60;99.90;;;;;;4822705;29;20065;-88
2022/03/05 12:36:17;;;;;;;25.05;12.50;;;11.40;99.90;;;;;;4820469;29;20430;-89
2022/03/05 12:38:43;;;;;;;20.38;11.18;;;11.90;99.90;;;;;;4805211;29;20484;-89
2022/03/05 12:41:10;;;;;;;19.17;11.02;;;12.40;99.90;;;;;;4798683;29;20042;-89
2022/03/05 12:43:41;;;;;;;22.42;11.80;;;12.40;99.90;;;;;;4812399;29;20058;-88